sensor_id;sensor_type;location;lat;lon;timestamp;pressure;altitude;pressure_sealevel;temperature;humidity
59767;BME280;46248;58.364;25.582;2022-11-20T00:01:46;100871.94;;;-5.43;89.43
59767;BME280;46248;58.364;25.582;2022-11-20T00:05:10;100856.53;;;-5.48;89.35
59767;BME280;46248;58.364;25.582;2022-11-20T00:08:32;100859.09;;;-5.48;88.84
59767;BME280;46248;58.364;25.582;2022-11-20T00:11:54;100858.22;;;-5.50;89.13
59767;BME280;46248;58.364;25.582;2022-11-20T00:15:16;100855.63;;;-5.52;89.18
59767;BME280;46248;58.364;25.582;2022-11-20T00:18:38;100853.06;;;-5.53;88.96
59767;BME280;46248;58.364;25.582;2022-11-20T00:22:01;100844.50;;;-5.57;89.72
59767;BME280;46248;58.364;25.582;2022-11-20T00:25:22;100842.75;;;-5.58;89.76
59767;BME280;46248;58.364;25.582;2022-11-20T00:28:50;100849.53;;;-5.58;89.87
59767;BME280;46248;58.364;25.582;2022-11-20T00:32:12;100842.63;;;-5.65;90.17
59767;BME280;46248;58.364;25.582;2022-11-20T00:35:35;100849.53;;;-5.60;90.27
59767;BME280;46248;58.364;25.582;2022-11-20T00:38:59;100829.06;;;-5.61;90.39
59767;BME280;46248;58.364;25.582;2022-11-20T00:42:21;100836.72;;;-5.61;90.47
59767;BME280;46248;58.364;25.582;2022-11-20T00:45:43;100839.22;;;-5.64;90.84
59767;BME280;46248;58.364;25.582;2022-11-20T00:49:05;100850.25;;;-5.65;90.63
59767;BME280;46248;58.364;25.582;2022-11-20T00:52:27;100845.97;;;-5.66;90.61
59767;BME280;46248;58.364;25.582;2022-11-20T00:55:54;100839.09;;;-5.70;90.64
59767;BME280;46248;58.364;25.582;2022-11-20T00:59:17;100835.66;;;-5.72;90.90
59767;BME280;46248;58.364;25.582;2022-11-20T01:02:39;100830.53;;;-5.72;90.80
59767;BME280;46248;58.364;25.582;2022-11-20T01:06:02;100824.59;;;-5.73;90.89
59767;BME280;46248;58.364;25.582;2022-11-20T01:09:24;100820.28;;;-5.76;90.82
59767;BME280;46248;58.364;25.582;2022-11-20T01:12:47;100820.28;;;-5.76;91.34
59767;BME280;46248;58.364;25.582;2022-11-20T01:16:31;100797.25;;;-5.80;91.25
59767;BME280;46248;58.364;25.582;2022-11-20T01:19:53;100804.19;;;-5.73;91.14
59767;BME280;46248;58.364;25.582;2022-11-20T01:23:15;100797.38;;;-5.74;91.51
59767;BME280;46248;58.364;25.582;2022-11-20T01:26:39;100794.72;;;-5.80;91.23
59767;BME280;46248;58.364;25.582;2022-11-20T01:30:03;100801.50;;;-5.81;91.64
59767;BME280;46248;58.364;25.582;2022-11-20T01:33:25;100804.06;;;-5.81;91.38
59767;BME280;46248;58.364;25.582;2022-11-20T01:36:48;100798.06;;;-5.81;91.13
59767;BME280;46248;58.364;25.582;2022-11-20T01:40:11;100790.28;;;-5.87;91.56
59767;BME280;46248;58.364;25.582;2022-11-20T01:43:34;100785.19;;;-5.87;91.09
59767;BME280;46248;58.364;25.582;2022-11-20T01:46:58;100769.75;;;-5.96;91.26
59767;BME280;46248;58.364;25.582;2022-11-20T01:50:23;100786.09;;;-5.87;91.20
59767;BME280;46248;58.364;25.582;2022-11-20T01:53:46;100797.06;;;-5.89;91.34
59767;BME280;46248;58.364;25.582;2022-11-20T01:57:10;100780.00;;;-5.95;91.46
59767;BME280;46248;58.364;25.582;2022-11-20T02:00:33;100790.34;;;-5.86;91.65
59767;BME280;46248;58.364;25.582;2022-11-20T02:03:58;100779.34;;;-5.83;91.08
59767;BME280;46248;58.364;25.582;2022-11-20T02:07:21;100774.25;;;-5.83;90.75
59767;BME280;46248;58.364;25.582;2022-11-20T02:10:44;100781.91;;;-5.83;90.79
59767;BME280;46248;58.364;25.582;2022-11-20T02:14:06;100790.41;;;-5.83;90.49
59767;BME280;46248;58.364;25.582;2022-11-20T02:17:29;100787.84;;;-5.83;90.81
59767;BME280;46248;58.364;25.582;2022-11-20T02:20:56;100780.19;;;-5.83;90.78
59767;BME280;46248;58.364;25.582;2022-11-20T02:24:25;100777.53;;;-5.87;89.96
59767;BME280;46248;58.364;25.582;2022-11-20T02:27:47;100768.16;;;-5.90;90.09
59767;BME280;46248;58.364;25.582;2022-11-20T02:31:09;100757.06;;;-5.92;89.43
59767;BME280;46248;58.364;25.582;2022-11-20T02:34:31;100756.22;;;-5.94;89.67
59767;BME280;46248;58.364;25.582;2022-11-20T02:37:56;100751.03;;;-5.97;89.55
59767;BME280;46248;58.364;25.582;2022-11-20T02:41:19;100752.69;;;-6.01;90.14
59767;BME280;46248;58.364;25.582;2022-11-20T02:44:41;100740.78;;;-6.02;89.84
59767;BME280;46248;58.364;25.582;2022-11-20T02:48:05;100742.38;;;-6.05;89.57
59767;BME280;46248;58.364;25.582;2022-11-20T02:51:28;100751.78;;;-6.04;89.70
59767;BME280;46248;58.364;25.582;2022-11-20T02:54:50;100745.81;;;-6.05;89.90
59767;BME280;46248;58.364;25.582;2022-11-20T02:58:13;100740.72;;;-6.05;89.72
59767;BME280;46248;58.364;25.582;2022-11-20T03:01:35;100749.22;;;-6.04;89.54
59767;BME280;46248;58.364;25.582;2022-11-20T03:04:57;100748.38;;;-6.03;89.71
59767;BME280;46248;58.364;25.582;2022-11-20T03:08:21;100756.00;;;-6.05;89.42
59767;BME280;46248;58.364;25.582;2022-11-20T03:11:43;100752.56;;;-6.07;90.11
59767;BME280;46248;58.364;25.582;2022-11-20T03:15:08;100747.47;;;-6.05;89.57
59767;BME280;46248;58.364;25.582;2022-11-20T03:18:31;100739.03;;;-6.04;89.77
59767;BME280;46248;58.364;25.582;2022-11-20T03:21:52;100734.72;;;-6.05;90.11
59767;BME280;46248;58.364;25.582;2022-11-20T03:25:14;100733.00;;;-6.08;90.30
59767;BME280;46248;58.364;25.582;2022-11-20T03:28:36;100733.88;;;-6.07;90.01
59767;BME280;46248;58.364;25.582;2022-11-20T03:31:59;100739.78;;;-6.08;90.46
59767;BME280;46248;58.364;25.582;2022-11-20T03:35:21;100741.47;;;-6.09;90.83
59767;BME280;46248;58.364;25.582;2022-11-20T03:38:44;100737.22;;;-6.08;90.89
59767;BME280;46248;58.364;25.582;2022-11-20T03:42:06;100744.13;;;-6.04;90.28
59767;BME280;46248;58.364;25.582;2022-11-20T03:45:48;100740.72;;;-6.03;90.88
59767;BME280;46248;58.364;25.582;2022-11-20T03:49:11;100730.56;;;-6.02;90.95
59767;BME280;46248;58.364;25.582;2022-11-20T03:52:33;100703.88;;;-6.19;90.26
59767;BME280;46248;58.364;25.582;2022-11-20T03:55:55;100714.28;;;-6.10;90.57
59767;BME280;46248;58.364;25.582;2022-11-20T03:59:16;100720.28;;;-6.06;90.25
59767;BME280;46248;58.364;25.582;2022-11-20T04:02:39;100719.44;;;-6.07;90.97
59767;BME280;46248;58.364;25.582;2022-11-20T04:06:04;100712.63;;;-6.06;90.54
59767;BME280;46248;58.364;25.582;2022-11-20T04:09:26;100705.75;;;-6.10;90.53
59767;BME280;46248;58.364;25.582;2022-11-20T04:12:48;100703.34;;;-6.04;90.87
59767;BME280;46248;58.364;25.582;2022-11-20T04:16:10;100705.88;;;-6.04;90.77
59767;BME280;46248;58.364;25.582;2022-11-20T04:19:31;100713.59;;;-6.00;90.99
59767;BME280;46248;58.364;25.582;2022-11-20T04:22:55;100701.78;;;-5.96;91.04
59767;BME280;46248;58.364;25.582;2022-11-20T04:26:17;100705.22;;;-5.94;90.95
59767;BME280;46248;58.364;25.582;2022-11-20T04:29:38;100696.69;;;-5.96;90.69
59767;BME280;46248;58.364;25.582;2022-11-20T04:33:00;100698.41;;;-5.93;91.32
59767;BME280;46248;58.364;25.582;2022-11-20T04:36:24;100704.38;;;-5.91;90.56
59767;BME280;46248;58.364;25.582;2022-11-20T04:39:48;100699.31;;;-5.90;90.49
59767;BME280;46248;58.364;25.582;2022-11-20T04:43:10;100695.09;;;-5.89;90.47
59767;BME280;46248;58.364;25.582;2022-11-20T04:46:34;100694.22;;;-5.90;91.10
59767;BME280;46248;58.364;25.582;2022-11-20T04:49:56;100693.41;;;-5.87;90.46
59767;BME280;46248;58.364;25.582;2022-11-20T04:53:19;100693.34;;;-5.92;90.40
59767;BME280;46248;58.364;25.582;2022-11-20T04:56:42;100697.69;;;-5.86;90.87
59767;BME280;46248;58.364;25.582;2022-11-20T05:00:04;100693.41;;;-5.87;90.09
59767;BME280;46248;58.364;25.582;2022-11-20T05:03:27;100694.28;;;-5.85;90.74
59767;BME280;46248;58.364;25.582;2022-11-20T05:06:49;100681.53;;;-5.85;90.50
59767;BME280;46248;58.364;25.582;2022-11-20T05:10:11;100689.25;;;-5.82;90.77
59767;BME280;46248;58.364;25.582;2022-11-20T05:13:35;100690.09;;;-5.82;90.57
59767;BME280;46248;58.364;25.582;2022-11-20T05:16:57;100687.50;;;-5.85;90.40
59767;BME280;46248;58.364;25.582;2022-11-20T05:20:19;100695.16;;;-5.85;90.27
59767;BME280;46248;58.364;25.582;2022-11-20T05:23:41;100688.25;;;-5.90;90.37
59767;BME280;46248;58.364;25.582;2022-11-20T05:27:03;100688.25;;;-5.90;90.26
59767;BME280;46248;58.364;25.582;2022-11-20T05:30:26;100693.38;;;-5.89;90.65
59767;BME280;46248;58.364;25.582;2022-11-20T05:33:48;100688.28;;;-5.87;90.73
59767;BME280;46248;58.364;25.582;2022-11-20T05:37:10;100686.63;;;-5.87;90.67
59767;BME280;46248;58.364;25.582;2022-11-20T05:40:32;100689.25;;;-5.84;90.77
59767;BME280;46248;58.364;25.582;2022-11-20T05:43:56;100696.00;;;-5.84;90.47
59767;BME280;46248;58.364;25.582;2022-11-20T05:47:20;100686.53;;;-5.91;90.68
59767;BME280;46248;58.364;25.582;2022-11-20T05:50:41;100700.25;;;-5.86;91.17
59767;BME280;46248;58.364;25.582;2022-11-20T05:54:03;100695.09;;;-5.88;90.77
59767;BME280;46248;58.364;25.582;2022-11-20T05:57:26;100701.09;;;-5.84;90.93
59767;BME280;46248;58.364;25.582;2022-11-20T06:00:48;100699.41;;;-5.85;91.04
59767;BME280;46248;58.364;25.582;2022-11-20T06:04:11;100705.41;;;-5.83;91.49
59767;BME280;46248;58.364;25.582;2022-11-20T06:07:33;100712.19;;;-5.82;91.08
59767;BME280;46248;58.364;25.582;2022-11-20T06:10:55;100713.91;;;-5.83;90.78
59767;BME280;46248;58.364;25.582;2022-11-20T06:14:17;100701.03;;;-5.87;90.76
59767;BME280;46248;58.364;25.582;2022-11-20T06:17:39;100713.91;;;-5.81;91.14
59767;BME280;46248;58.364;25.582;2022-11-20T06:21:04;100707.16;;;-5.81;91.00
59767;BME280;46248;58.364;25.582;2022-11-20T06:24:26;100705.47;;;-5.79;90.96
59767;BME280;46248;58.364;25.582;2022-11-20T06:27:48;100710.59;;;-5.77;91.02
59767;BME280;46248;58.364;25.582;2022-11-20T06:31:11;100702.09;;;-5.76;91.18
59767;BME280;46248;58.364;25.582;2022-11-20T06:34:33;100700.47;;;-5.74;90.87
59767;BME280;46248;58.364;25.582;2022-11-20T06:37:57;100711.53;;;-5.72;90.72
59767;BME280;46248;58.364;25.582;2022-11-20T06:41:20;100708.97;;;-5.72;90.91
59767;BME280;46248;58.364;25.582;2022-11-20T06:44:42;100725.16;;;-5.70;90.92
59767;BME280;46248;58.364;25.582;2022-11-20T06:48:03;100711.56;;;-5.69;90.57
59767;BME280;46248;58.364;25.582;2022-11-20T06:51:25;100715.88;;;-5.66;91.02
59767;BME280;46248;58.364;25.582;2022-11-20T06:54:49;100722.72;;;-5.65;90.56
59767;BME280;46248;58.364;25.582;2022-11-20T06:58:11;100727.88;;;-5.61;90.88
59767;BME280;46248;58.364;25.582;2022-11-20T07:01:33;100726.25;;;-5.57;91.13
59767;BME280;46248;58.364;25.582;2022-11-20T07:04:55;100728.03;;;-5.53;91.14
59767;BME280;46248;58.364;25.582;2022-11-20T07:08:17;100726.34;;;-5.53;90.56
59767;BME280;46248;58.364;25.582;2022-11-20T07:11:41;100737.56;;;-5.44;90.74
59767;BME280;46248;58.364;25.582;2022-11-20T07:15:03;100732.44;;;-5.44;90.24
59767;BME280;46248;58.364;25.582;2022-11-20T07:18:25;100735.91;;;-5.41;90.38
59767;BME280;46248;58.364;25.582;2022-11-20T07:21:48;100739.31;;;-5.40;90.63
59767;BME280;46248;58.364;25.582;2022-11-20T07:25:10;100747.03;;;-5.36;90.47
59767;BME280;46248;58.364;25.582;2022-11-20T07:28:33;100729.13;;;-5.39;89.91
59767;BME280;46248;58.364;25.582;2022-11-20T07:31:55;100724.84;;;-5.40;90.37
59767;BME280;46248;58.364;25.582;2022-11-20T07:35:18;100753.16;;;-5.26;89.35
59767;BME280;46248;58.364;25.582;2022-11-20T07:38:40;100748.94;;;-5.24;89.52
59767;BME280;46248;58.364;25.582;2022-11-20T07:42:02;100754.13;;;-5.19;89.89
59767;BME280;46248;58.364;25.582;2022-11-20T07:45:25;100761.84;;;-5.15;89.46
59767;BME280;46248;58.364;25.582;2022-11-20T07:48:47;100757.69;;;-5.11;89.29
59767;BME280;46248;58.364;25.582;2022-11-20T07:52:09;100757.78;;;-5.05;89.43
59767;BME280;46248;58.364;25.582;2022-11-20T07:55:32;100757.81;;;-5.02;88.76
59767;BME280;46248;58.364;25.582;2022-11-20T07:58:54;100764.69;;;-4.96;88.53
59767;BME280;46248;58.364;25.582;2022-11-20T08:02:17;100757.03;;;-4.98;88.11
59767;BME280;46248;58.364;25.582;2022-11-20T08:05:39;100755.38;;;-4.96;87.96
59767;BME280;46248;58.364;25.582;2022-11-20T08:09:01;100747.72;;;-4.94;88.08
59767;BME280;46248;58.364;25.582;2022-11-20T08:12:23;100742.56;;;-4.99;87.84
59767;BME280;46248;58.364;25.582;2022-11-20T08:16:03;100756.22;;;-4.95;87.70
59767;BME280;46248;58.364;25.582;2022-11-20T08:19:27;100751.81;;;-5.02;87.98
59767;BME280;46248;58.364;25.582;2022-11-20T08:22:51;100761.38;;;-4.91;87.81
59767;BME280;46248;58.364;25.582;2022-11-20T08:26:13;100758.88;;;-4.89;87.59
59767;BME280;46248;58.364;25.582;2022-11-20T08:29:35;100758.03;;;-4.88;87.07
59767;BME280;46248;58.364;25.582;2022-11-20T08:33:01;100752.91;;;-4.88;87.29
59767;BME280;46248;58.364;25.582;2022-11-20T08:36:25;100741.88;;;-4.86;87.49
59767;BME280;46248;58.364;25.582;2022-11-20T08:39:49;100745.41;;;-4.77;86.90
59767;BME280;46248;58.364;25.582;2022-11-20T08:43:12;100747.31;;;-4.64;86.45
59767;BME280;46248;58.364;25.582;2022-11-20T08:46:36;100748.25;;;-4.57;85.98
59767;BME280;46248;58.364;25.582;2022-11-20T08:49:58;100749.25;;;-4.48;85.75
59767;BME280;46248;58.364;25.582;2022-11-20T08:53:21;100753.56;;;-4.42;85.14
59767;BME280;46248;58.364;25.582;2022-11-20T08:56:43;100748.44;;;-4.42;84.05
59767;BME280;46248;58.364;25.582;2022-11-20T09:00:07;100757.88;;;-4.40;84.52
59767;BME280;46248;58.364;25.582;2022-11-20T09:03:30;100761.31;;;-4.36;84.44
59767;BME280;46248;58.364;25.582;2022-11-20T09:06:54;100758.72;;;-4.39;83.47
59767;BME280;46248;58.364;25.582;2022-11-20T09:10:17;100762.16;;;-4.39;84.05
59767;BME280;46248;58.364;25.582;2022-11-20T09:13:44;100754.50;;;-4.39;84.28
59767;BME280;46248;58.364;25.582;2022-11-20T09:17:06;100768.16;;;-4.33;84.49
59767;BME280;46248;58.364;25.582;2022-11-20T09:20:29;100761.31;;;-4.36;83.46
59767;BME280;46248;58.364;25.582;2022-11-20T09:23:51;100763.91;;;-4.34;83.93
59767;BME280;46248;58.364;25.582;2022-11-20T09:27:15;100758.84;;;-4.31;83.41
59767;BME280;46248;58.364;25.582;2022-11-20T09:30:41;100753.88;;;-4.19;84.05
59767;BME280;46248;58.364;25.582;2022-11-20T09:34:03;100762.56;;;-4.08;83.27
59767;BME280;46248;58.364;25.582;2022-11-20T09:37:25;100755.78;;;-4.03;83.20
59767;BME280;46248;58.364;25.582;2022-11-20T09:40:51;100759.25;;;-3.99;83.60
59767;BME280;46248;58.364;25.582;2022-11-20T09:44:29;100770.41;;;-3.93;82.97
59767;BME280;46248;58.364;25.582;2022-11-20T09:48:18;100761.94;;;-3.87;82.35
59767;BME280;46248;58.364;25.582;2022-11-20T09:51:49;100770.50;;;-3.83;82.91
59767;BME280;46248;58.364;25.582;2022-11-20T09:55:16;100761.13;;;-3.81;82.83
59767;BME280;46248;58.364;25.582;2022-11-20T09:58:41;100772.31;;;-3.73;82.29
59767;BME280;46248;58.364;25.582;2022-11-20T10:02:17;100771.59;;;-3.63;82.81
59767;BME280;46248;58.364;25.582;2022-11-20T10:05:44;100769.94;;;-3.55;80.76
59767;BME280;46248;58.364;25.582;2022-11-20T10:09:18;100772.56;;;-3.49;81.70
59767;BME280;46248;58.364;25.582;2022-11-20T10:12:58;100766.72;;;-3.38;80.56
59767;BME280;46248;58.364;25.582;2022-11-20T10:16:30;100762.47;;;-3.33;80.44
59767;BME280;46248;58.364;25.582;2022-11-20T10:20:14;100767.75;;;-3.16;79.90
59767;BME280;46248;58.364;25.582;2022-11-20T10:27:43;100761.94;;;-2.98;79.05
59767;BME280;46248;58.364;25.582;2022-11-20T10:31:23;100759.34;;;-3.00;77.60
59767;BME280;46248;58.364;25.582;2022-11-20T10:34:51;100756.78;;;-3.00;77.75
59767;BME280;46248;58.364;25.582;2022-11-20T10:38:20;100755.16;;;-2.93;77.31
59767;BME280;46248;58.364;25.582;2022-11-20T10:41:46;100764.59;;;-2.85;77.63
59767;BME280;46248;58.364;25.582;2022-11-20T10:45:18;100770.66;;;-2.73;77.64
59767;BME280;46248;58.364;25.582;2022-11-20T10:48:44;100765.59;;;-2.64;77.09
59767;BME280;46248;58.364;25.582;2022-11-20T10:52:12;100769.09;;;-2.51;75.54
59767;BME280;46248;58.364;25.582;2022-11-20T10:55:43;100754.63;;;-2.45;75.43
59767;BME280;46248;58.364;25.582;2022-11-20T10:59:32;100765.75;;;-2.40;72.66
59767;BME280;46248;58.364;25.582;2022-11-20T11:02:56;100771.72;;;-2.44;74.00
59767;BME280;46248;58.364;25.582;2022-11-20T11:06:32;100778.53;;;-2.43;72.91
59767;BME280;46248;58.364;25.582;2022-11-20T11:09:57;100768.28;;;-2.47;73.90
59767;BME280;46248;58.364;25.582;2022-11-20T11:13:22;100776.78;;;-2.48;73.32
59767;BME280;46248;58.364;25.582;2022-11-20T11:16:50;100776.75;;;-2.55;72.90
59767;BME280;46248;58.364;25.582;2022-11-20T11:20:16;100761.31;;;-2.64;72.77
59767;BME280;46248;58.364;25.582;2022-11-20T11:23:40;100763.78;;;-2.79;73.46
59767;BME280;46248;58.364;25.582;2022-11-20T11:27:03;100786.84;;;-2.79;73.06
59767;BME280;46248;58.364;25.582;2022-11-20T11:30:45;100772.31;;;-2.83;73.82
59767;BME280;46248;58.364;25.582;2022-11-20T11:34:13;100780.88;;;-2.81;74.31
59767;BME280;46248;58.364;25.582;2022-11-20T11:37:36;100784.28;;;-2.79;74.50
59767;BME280;46248;58.364;25.582;2022-11-20T11:40:59;100786.03;;;-2.75;74.30
59767;BME280;46248;58.364;25.582;2022-11-20T11:44:26;100791.22;;;-2.67;73.97
59767;BME280;46248;58.364;25.582;2022-11-20T11:48:09;100788.63;;;-2.70;73.72
59767;BME280;46248;58.364;25.582;2022-11-20T11:51:34;100792.88;;;-2.69;73.37
59767;BME280;46248;58.364;25.582;2022-11-20T11:55:02;100790.25;;;-2.79;72.07
59767;BME280;46248;58.364;25.582;2022-11-20T11:58:41;100773.00;;;-3.03;72.68
59767;BME280;46248;58.364;25.582;2022-11-20T12:02:19;100795.16;;;-3.06;72.42
59767;BME280;46248;58.364;25.582;2022-11-20T12:05:49;100789.09;;;-3.16;72.09
59767;BME280;46248;58.364;25.582;2022-11-20T12:09:12;100796.72;;;-3.27;72.30
59767;BME280;46248;58.364;25.582;2022-11-20T12:12:37;100805.97;;;-3.38;72.36
59767;BME280;46248;58.364;25.582;2022-11-20T12:16:03;100813.53;;;-3.50;72.17
59767;BME280;46248;58.364;25.582;2022-11-20T12:19:26;100808.22;;;-3.69;72.63
59767;BME280;46248;58.364;25.582;2022-11-20T12:22:58;100816.63;;;-3.77;72.98
59767;BME280;46248;58.364;25.582;2022-11-20T12:26:34;100825.94;;;-3.84;73.08
59767;BME280;46248;58.364;25.582;2022-11-20T12:30:07;100822.41;;;-3.92;73.38
59767;BME280;46248;58.364;25.582;2022-11-20T12:33:50;100828.34;;;-3.95;73.65
59767;BME280;46248;58.364;25.582;2022-11-20T12:37:26;100825.78;;;-3.95;74.46
59767;BME280;46248;58.364;25.582;2022-11-20T12:40:59;100837.72;;;-3.95;74.03
59767;BME280;46248;58.364;25.582;2022-11-20T12:44:34;100829.13;;;-4.00;73.60
59767;BME280;46248;58.364;25.582;2022-11-20T12:48:38;100839.19;;;-4.14;73.66
59767;BME280;46248;58.364;25.582;2022-11-20T12:52:16;100840.69;;;-4.27;73.97
59767;BME280;46248;58.364;25.582;2022-11-20T12:55:48;100831.13;;;-4.42;74.30
59767;BME280;46248;58.364;25.582;2022-11-20T12:59:33;100851.50;;;-4.46;75.20
59767;BME280;46248;58.364;25.582;2022-11-20T13:03:20;100858.13;;;-4.57;75.23
59767;BME280;46248;58.364;25.582;2022-11-20T13:06:46;100860.53;;;-4.68;74.97
59767;BME280;46248;58.364;25.582;2022-11-20T13:10:14;100856.97;;;-4.76;75.68
59767;BME280;46248;58.364;25.582;2022-11-20T13:13:48;100867.88;;;-4.87;75.64
59767;BME280;46248;58.364;25.582;2022-11-20T13:17:20;100876.19;;;-4.97;76.25
59767;BME280;46248;58.364;25.582;2022-11-20T13:20:46;100877.84;;;-5.00;76.77
59767;BME280;46248;58.364;25.582;2022-11-20T13:24:21;100883.63;;;-5.11;76.87
59767;BME280;46248;58.364;25.582;2022-11-20T13:27:47;100877.50;;;-5.19;76.80
59767;BME280;46248;58.364;25.582;2022-11-20T13:31:24;100885.91;;;-5.24;77.48
59767;BME280;46248;58.364;25.582;2022-11-20T13:34:56;100882.34;;;-5.33;77.03
59767;BME280;46248;58.364;25.582;2022-11-20T13:38:18;100888.22;;;-5.38;77.88
59767;BME280;46248;58.364;25.582;2022-11-20T13:41:40;100884.66;;;-5.46;78.51
59767;BME280;46248;58.364;25.582;2022-11-20T13:45:09;100893.03;;;-5.52;78.14
59767;BME280;46248;58.364;25.582;2022-11-20T13:48:34;100898.88;;;-5.58;78.89
59767;BME280;46248;58.364;25.582;2022-11-20T13:55:54;100893.47;;;-5.73;78.58
59767;BME280;46248;58.364;25.582;2022-11-20T14:03:09;100897.31;;;-5.92;79.27
59767;BME280;46248;58.364;25.582;2022-11-20T14:06:40;100898.97;;;-5.95;79.40
59767;BME280;46248;58.364;25.582;2022-11-20T14:10:05;100904.78;;;-6.01;80.14
59767;BME280;46248;58.364;25.582;2022-11-20T14:13:27;100908.06;;;-6.07;80.39
59767;BME280;46248;58.364;25.582;2022-11-20T14:16:50;100898.56;;;-6.14;80.70
59767;BME280;46248;58.364;25.582;2022-11-20T14:20:14;100898.38;;;-6.22;80.77
59767;BME280;46248;58.364;25.582;2022-11-20T14:23:39;100897.41;;;-6.27;80.88
59767;BME280;46248;58.364;25.582;2022-11-20T14:27:03;100893.84;;;-6.33;81.12
59767;BME280;46248;58.364;25.582;2022-11-20T14:30:27;100897.16;;;-6.37;81.51
59767;BME280;46248;58.364;25.582;2022-11-20T14:33:50;100896.19;;;-6.42;82.21
59767;BME280;46248;58.364;25.582;2022-11-20T14:37:17;100887.56;;;-6.48;82.17
59767;BME280;46248;58.364;25.582;2022-11-20T14:40:41;100890.88;;;-6.52;82.33
59767;BME280;46248;58.364;25.582;2022-11-20T14:44:06;100892.38;;;-6.60;81.94
59767;BME280;46248;58.364;25.582;2022-11-20T14:47:31;100893.88;;;-6.68;82.80
59767;BME280;46248;58.364;25.582;2022-11-20T14:50:53;100904.72;;;-6.75;82.87
59767;BME280;46248;58.364;25.582;2022-11-20T14:54:17;100893.53;;;-6.82;83.44
59767;BME280;46248;58.364;25.582;2022-11-20T14:57:40;100897.69;;;-6.85;83.76
59767;BME280;46248;58.364;25.582;2022-11-20T15:01:05;100889.97;;;-6.88;83.97
59767;BME280;46248;58.364;25.582;2022-11-20T15:04:28;100885.72;;;-6.89;83.65
59767;BME280;46248;58.364;25.582;2022-11-20T15:07:52;100893.19;;;-6.96;84.11
59767;BME280;46248;58.364;25.582;2022-11-20T15:11:17;100900.78;;;-6.97;83.98
59767;BME280;46248;58.364;25.582;2022-11-20T15:14:39;100898.16;;;-7.00;84.28
59767;BME280;46248;58.364;25.582;2022-11-20T15:18:03;100891.13;;;-7.09;85.00
59767;BME280;46248;58.364;25.582;2022-11-20T15:21:25;100895.31;;;-7.11;85.08
59767;BME280;46248;58.364;25.582;2022-11-20T15:24:48;100889.34;;;-7.13;85.19
59767;BME280;46248;58.364;25.582;2022-11-20T15:28:16;100874.63;;;-7.23;85.00
59767;BME280;46248;58.364;25.582;2022-11-20T15:31:39;100886.56;;;-7.22;85.76
59767;BME280;46248;58.364;25.582;2022-11-20T15:35:06;100883.00;;;-7.27;85.18
59767;BME280;46248;58.364;25.582;2022-11-20T15:38:31;100860.47;;;-7.45;85.62
59767;BME280;46248;58.364;25.582;2022-11-20T15:41:53;100877.75;;;-7.33;85.25
59767;BME280;46248;58.364;25.582;2022-11-20T15:45:17;100890.47;;;-7.35;85.64
59767;BME280;46248;58.364;25.582;2022-11-20T15:48:41;100886.94;;;-7.39;86.39
59767;BME280;46248;58.364;25.582;2022-11-20T15:52:10;100889.47;;;-7.40;85.96
59767;BME280;46248;58.364;25.582;2022-11-20T15:55:32;100886.84;;;-7.42;86.12
59767;BME280;46248;58.364;25.582;2022-11-20T15:58:54;100881.66;;;-7.46;85.44
59767;BME280;46248;58.364;25.582;2022-11-20T16:02:16;100885.03;;;-7.47;85.95
59767;BME280;46248;58.364;25.582;2022-11-20T16:05:39;100886.66;;;-7.49;86.16
59767;BME280;46248;58.364;25.582;2022-11-20T16:09:02;100885.81;;;-7.50;85.67
59767;BME280;46248;58.364;25.582;2022-11-20T16:12:24;100878.00;;;-7.56;86.13
59767;BME280;46248;58.364;25.582;2022-11-20T16:16:06;100875.56;;;-7.53;86.19
59767;BME280;46248;58.364;25.582;2022-11-20T16:19:30;100870.38;;;-7.56;86.32
59767;BME280;46248;58.364;25.582;2022-11-20T16:22:51;100873.63;;;-7.60;86.87
59767;BME280;46248;58.364;25.582;2022-11-20T16:26:16;100880.47;;;-7.59;86.63
59767;BME280;46248;58.364;25.582;2022-11-20T16:29:39;100879.56;;;-7.60;85.94
59767;BME280;46248;58.364;25.582;2022-11-20T16:33:02;100874.28;;;-7.67;86.25
59767;BME280;46248;58.364;25.582;2022-11-20T16:36:25;100881.09;;;-7.66;86.63
59767;BME280;46248;58.364;25.582;2022-11-20T16:39:47;100875.91;;;-7.69;86.63
59767;BME280;46248;58.364;25.582;2022-11-20T16:43:13;100884.47;;;-7.67;86.50
59767;BME280;46248;58.364;25.582;2022-11-20T16:46:36;100861.84;;;-7.87;86.21
59767;BME280;46248;58.364;25.582;2022-11-20T16:50:00;100892.00;;;-7.70;85.98
59767;BME280;46248;58.364;25.582;2022-11-20T16:53:22;100889.41;;;-7.72;86.33
59767;BME280;46248;58.364;25.582;2022-11-20T16:56:44;100883.34;;;-7.77;86.25
59767;BME280;46248;58.364;25.582;2022-11-20T17:00:09;100878.97;;;-7.81;85.86
59767;BME280;46248;58.364;25.582;2022-11-20T17:03:31;100891.75;;;-7.79;86.54
59767;BME280;46248;58.364;25.582;2022-11-20T17:06:54;100883.97;;;-7.84;86.32
59767;BME280;46248;58.364;25.582;2022-11-20T17:10:16;100886.56;;;-7.82;86.21
59767;BME280;46248;58.364;25.582;2022-11-20T17:13:38;100874.38;;;-7.93;86.79
59767;BME280;46248;58.364;25.582;2022-11-20T17:17:02;100883.06;;;-7.86;86.39
59767;BME280;46248;58.364;25.582;2022-11-20T17:20:24;100886.47;;;-7.86;86.23
59767;BME280;46248;58.364;25.582;2022-11-20T17:23:46;100885.47;;;-7.91;86.49
59767;BME280;46248;58.364;25.582;2022-11-20T17:27:08;100894.81;;;-7.90;86.71
59767;BME280;46248;58.364;25.582;2022-11-20T17:30:30;100887.00;;;-7.96;86.45
59767;BME280;46248;58.364;25.582;2022-11-20T17:33:54;100893.94;;;-7.92;87.00
59767;BME280;46248;58.364;25.582;2022-11-20T17:37:16;100900.69;;;-7.92;87.08
59767;BME280;46248;58.364;25.582;2022-11-20T17:40:37;100899.81;;;-7.93;86.97
59767;BME280;46248;58.364;25.582;2022-11-20T17:44:00;100895.63;;;-7.91;86.81
59767;BME280;46248;58.364;25.582;2022-11-20T17:47:23;100896.47;;;-7.92;86.91
59767;BME280;46248;58.364;25.582;2022-11-20T17:50:46;100897.13;;;-7.97;87.33